Time;durP1;ratioP1;P1;durP2;ratioP2;P2;SDS_P1;SDS_P2;PMS_P1;PMS_P2;Temp;Humidity;BMP_temperature;BMP_pressure;BME280_temperature;BME280_humidity;BME280_pressure;Samples;Min_cycle;Max_cycle;Signal;HPM_P1;HPM_P2
2022/02/25 00:00:22;;;;;;;;;;;;;;;;;;5094194;28;20356;-71
2022/02/25 00:02:48;;;;;;;;;;;;;;;;;;5094192;28;19957;-71
2022/02/25 00:05:15;;;;;;;;;;;;;;;;;;5093971;28;19917;-73
2022/02/25 00:07:41;;;;;;;;;;;;;;;;;;5094220;28;19912;-70
2022/02/25 00:10:07;;;;;;;;;;;;;;;;;;5094117;28;19908;-71
2022/02/25 00:12:33;;;;;;;;;;;;;;;;;;5093621;28;19909;-72
2022/02/25 00:15:00;;;;;;;;;;;;;;;;;;5094134;28;20427;-72
2022/02/25 00:17:26;;;;;;;;;;;;;;;;;;5075835;28;19912;-72
2022/02/25 00:19:52;;;;;;;;;;;;;;;;;;5093735;28;19912;-71
2022/02/25 00:22:18;;;;;;;;;;;;;;;;;;5093957;28;19909;-72
2022/02/25 00:24:44;;;;;;;;;;;;;;;;;;5093760;28;19995;-72
2022/02/25 00:27:10;;;;;;;;;;;;;;;;;;5093505;28;19916;-72
2022/02/25 00:29:36;;;;;;;;;;;;;;;;;;5094026;28;19987;-72
2022/02/25 00:32:02;;;;;;;;;;;;;;;;;;5075726;28;19915;-72
2022/02/25 00:34:28;;;;;;;;;;;;;;;;;;5093461;28;20292;-71
2022/02/25 00:36:54;;;;;;;;;;;;;;;;;;5093876;28;19960;-72
2022/02/25 00:39:20;;;;;;;;;;;;;;;;;;5093771;28;19908;-72
2022/02/25 00:41:46;;;;;;;;;;;;;;;;;;5093437;28;19915;-71
2022/02/25 00:44:13;;;;;;;;;;;;;;;;;;5075738;28;20359;-72
2022/02/25 00:46:39;;;;;;;;;;;;;;;;;;5093981;28;20283;-72
2022/02/25 00:49:05;;;;;;;;;;;;;;;;;;5097515;28;19916;-72
2022/02/25 00:51:31;;;;;;;;;;;;;;;;;;5097798;28;19908;-72
2022/02/25 00:53:57;;;;;;;;;;;;;;;;;;5079667;28;19908;-72
2022/02/25 00:56:24;;;;;;;;;;;;;;;;;;5097373;28;20413;-72
2022/02/25 00:58:50;;;;;;;;;;;;;;;;;;5079574;28;19990;-72
2022/02/25 01:01:16;;;;;;;;;;;;;;;;;;5079069;28;20343;-72
2022/02/25 01:03:42;;;;;;;;;;;;;;;;;;5079408;28;19955;-72
2022/02/25 01:06:08;;;;;;;;;;;;;;;;;;5079216;28;19986;-71
2022/02/25 01:08:34;;;;;;;;;;;;;;;;;;5097331;28;19908;-72
2022/02/25 01:11:00;;;;;;;;;;;;;;;;;;5097709;28;20006;-72
2022/02/25 01:13:26;;;;;;;;;;;;;;;;;;5097371;28;19908;-72
2022/02/25 01:15:52;;;;;;;;;;;;;;;;;;5096993;28;19919;-72
2022/02/25 01:18:18;;;;;;;;;;;;;;;;;;5097529;28;20351;-72
2022/02/25 01:20:44;;;;;;;;;;;;;;;;;;5097283;28;19950;-72
2022/02/25 01:23:10;;;;;;;;;;;;;;;;;;5096793;28;20279;-72
2022/02/25 01:25:36;;;;;;;;;;;;;;;;;;5078657;28;19920;-72
2022/02/25 01:28:02;;;;;;;;;;;;;;;;;;5097133;28;19914;-72
2022/02/25 01:30:28;;;;;;;;;;;;;;;;;;5096646;28;20275;-73
2022/02/25 01:32:54;;;;;;;;;;;;;;;;;;5097004;28;19916;-72
2022/02/25 01:35:20;;;;;;;;;;;;;;;;;;5097485;28;20418;-72
2022/02/25 01:37:46;;;;;;;;;;;;;;;;;;5096548;28;19944;-73
2022/02/25 01:40:12;;;;;;;;;;;;;;;;;;5096950;28;19919;-72
2022/02/25 01:42:38;;;;;;;;;;;;;;;;;;5096837;28;19998;-73
2022/02/25 01:45:04;;;;;;;;;;;;;;;;;;5096221;28;19938;-72
2022/02/25 01:47:30;;;;;;;;;;;;;;;;;;5078544;28;19931;-72
2022/02/25 01:49:56;;;;;;;;;;;;;;;;;;5096746;28;19908;-72
2022/02/25 01:52:22;;;;;;;;;;;;;;;;;;5096336;28;20358;-72
2022/02/25 01:54:48;;;;;;;;;;;;;;;;;;5096592;28;19919;-73
2022/02/25 01:57:14;;;;;;;;;;;;;;;;;;5078248;28;19931;-73
2022/02/25 01:59:40;;;;;;;;;;;;;;;;;;5095846;28;19944;-73
2022/02/25 02:02:06;;;;;;;;;;;;;;;;;;5096469;28;20013;-72
2022/02/25 02:04:32;;;;;;;;;;;;;;;;;;5096040;28;19977;-71
2022/02/25 02:06:58;;;;;;;;;;;;;;;;;;5096256;28;19916;-72
2022/02/25 02:09:24;;;;;;;;;;;;;;;;;;5096328;28;19915;-72
2022/02/25 02:11:50;;;;;;;;;;;;;;;;;;5077698;28;20367;-72
2022/02/25 02:14:17;;;;;;;;;;;;;;;;;;5078060;28;19908;-72
2022/02/25 02:16:43;;;;;;;;;;;;;;;;;;5078043;28;19908;-72
2022/02/25 02:19:08;;;;;;;;;;;;;;;;;;5095703;28;19908;-72
2022/02/25 02:21:34;;;;;;;;;;;;;;;;;;5096067;28;19915;-73
2022/02/25 02:24:01;;;;;;;;;;;;;;;;;;5077850;28;20317;-72
2022/02/25 02:26:27;;;;;;;;;;;;;;;;;;5073832;28;19920;-72
2022/02/25 02:28:53;;;;;;;;;;;;;;;;;;5074478;28;20357;-72
2022/02/25 02:31:19;;;;;;;;;;;;;;;;;;5075714;28;19916;-72
2022/02/25 02:33:45;;;;;;;;;;;;;;;;;;5075271;28;20261;-73
2022/02/25 02:36:11;;;;;;;;;;;;;;;;;;5075568;28;20039;-72
2022/02/25 02:38:37;;;;;;;;;;;;;;;;;;5074212;28;19909;-73
2022/02/25 02:41:03;;;;;;;;;;;;;;;;;;5073873;28;19909;-72
2022/02/25 02:43:29;;;;;;;;;;;;;;;;;;5075394;28;20296;-72
2022/02/25 02:45:55;;;;;;;;;;;;;;;;;;5075305;28;19963;-72
2022/02/25 02:48:21;;;;;;;;;;;;;;;;;;5074997;28;19908;-72
2022/02/25 02:50:47;;;;;;;;;;;;;;;;;;5075626;28;20339;-72
2022/02/25 02:53:14;;;;;;;;;;;;;;;;;;5073961;28;19916;-72
2022/02/25 02:55:40;;;;;;;;;;;;;;;;;;5073575;28;19909;-73
2022/02/25 02:58:06;;;;;;;;;;;;;;;;;;5075206;28;19950;-73
2022/02/25 03:00:32;;;;;;;;;;;;;;;;;;5075027;28;20428;-73
2022/02/25 03:02:58;;;;;;;;;;;;;;;;;;5074743;28;19909;-72
2022/02/25 03:05:24;;;;;;;;;;;;;;;;;;5074894;28;19912;-72
2022/02/25 03:07:51;;;;;;;;;;;;;;;;;;5074600;28;20378;-72
2022/02/25 03:10:17;;;;;;;;;;;;;;;;;;5072813;28;19957;-72
2022/02/25 03:12:43;;;;;;;;;;;;;;;;;;5074834;28;19915;-72
2022/02/25 03:15:09;;;;;;;;;;;;;;;;;;5074392;28;19908;-72
2022/02/25 03:17:37;;;;;;;;;;;;;;;;;;5074732;28;20034;-72
2022/02/25 03:20:03;;;;;;;;;;;;;;;;;;5073374;28;19916;-72
2022/02/25 03:22:29;;;;;;;;;;;;;;;;;;5074252;28;19908;-72
2022/02/25 03:24:55;;;;;;;;;;;;;;;;;;5077382;28;19920;-72
2022/02/25 03:27:21;;;;;;;;;;;;;;;;;;5095026;28;20390;-72
2022/02/25 03:29:47;;;;;;;;;;;;;;;;;;5094395;28;19970;-72
2022/02/25 03:32:13;;;;;;;;;;;;;;;;;;5094722;28;19908;-72
2022/02/25 03:34:39;;;;;;;;;;;;;;;;;;5076419;28;19912;-72
2022/02/25 03:37:05;;;;;;;;;;;;;;;;;;5076022;28;19908;-72
2022/02/25 03:39:31;;;;;;;;;;;;;;;;;;5076496;28;20058;-72
2022/02/25 03:41:57;;;;;;;;;;;;;;;;;;5094552;28;20347;-72
2022/02/25 03:44:23;;;;;;;;;;;;;;;;;;5094164;28;19908;-72
2022/02/25 03:46:49;;;;;;;;;;;;;;;;;;5076182;28;19916;-72
2022/02/25 03:49:15;;;;;;;;;;;;;;;;;;5094521;28;20466;-72
2022/02/25 03:51:41;;;;;;;;;;;;;;;;;;5094104;28;19915;-73
2022/02/25 03:54:07;;;;;;;;;;;;;;;;;;5094394;28;19908;-72
2022/02/25 03:56:33;;;;;;;;;;;;;;;;;;5094306;28;20392;-72
2022/02/25 03:58:59;;;;;;;;;;;;;;;;;;5093920;28;19915;-72
2022/02/25 04:01:25;;;;;;;;;;;;;;;;;;5094271;28;19908;-72
2022/02/25 04:03:51;;;;;;;;;;;;;;;;;;5094216;28;20279;-72
2022/02/25 04:06:17;;;;;;;;;;;;;;;;;;5075560;28;19924;-72
2022/02/25 04:08:43;;;;;;;;;;;;;;;;;;5094120;28;19939;-72
2022/02/25 04:11:09;;;;;;;;;;;;;;;;;;5093802;28;20280;-71
2022/02/25 04:13:35;;;;;;;;;;;;;;;;;;5094079;28;20378;-72
2022/02/25 04:16:01;;;;;;;;;;;;;;;;;;5094048;28;19935;-72
2022/02/25 04:18:27;;;;;;;;;;;;;;;;;;5093613;28;19931;-72
2022/02/25 04:20:53;;;;;;;;;;;;;;;;;;5093854;28;20390;-72
2022/02/25 04:23:19;;;;;;;;;;;;;;;;;;5094259;28;19995;-72
2022/02/25 04:25:45;;;;;;;;;;;;;;;;;;5075184;28;20338;-72
2022/02/25 04:28:11;;;;;;;;;;;;;;;;;;5075787;28;19923;-72
2022/02/25 04:30:37;;;;;;;;;;;;;;;;;;5075825;28;19908;-72
2022/02/25 04:33:03;;;;;;;;;;;;;;;;;;5093499;28;20257;-72
2022/02/25 04:35:29;;;;;;;;;;;;;;;;;;5093936;28;19954;-72
2022/02/25 04:37:55;;;;;;;;;;;;;;;;;;5094147;28;19909;-72
2022/02/25 04:40:20;;;;;;;;;;;;;;;;;;5093540;28;19908;-72
2022/02/25 04:42:46;;;;;;;;;;;;;;;;;;5075668;28;20012;-72
2022/02/25 04:45:12;;;;;;;;;;;;;;;;;;5093709;28;19908;-72
2022/02/25 04:47:39;;;;;;;;;;;;;;;;;;5093401;28;19912;-73
2022/02/25 04:50:05;;;;;;;;;;;;;;;;;;5075781;28;20275;-72
2022/02/25 04:52:31;;;;;;;;;;;;;;;;;;5093674;28;20325;-72
2022/02/25 04:54:57;;;;;;;;;;;;;;;;;;5093305;28;19943;-72
2022/02/25 04:57:23;;;;;;;;;;;;;;;;;;5093609;28;19908;-72
2022/02/25 04:59:49;;;;;;;;;;;;;;;;;;5093810;28;19909;-72
2022/02/25 05:02:15;;;;;;;;;;;;;;;;;;5075101;28;19931;-72
2022/02/25 05:04:41;;;;;;;;;;;;;;;;;;5075452;28;19955;-72
2022/02/25 05:07:07;;;;;;;;;;;;;;;;;;5075224;28;19951;-72
2022/02/25 05:09:33;;;;;;;;;;;;;;;;;;5093164;28;19909;-73
2022/02/25 05:11:59;;;;;;;;;;;;;;;;;;5093513;28;19915;-72
2022/02/25 05:22:40;;;;;;;;;;;;;;;;;;5093070;28;19977;-74
2022/02/25 05:25:06;;;;;;;;;;;;;;;;;;5093251;28;19947;-75
2022/02/25 05:27:32;;;;;;;;;;;;;;;;;;5075197;28;19973;-74
2022/02/25 05:29:58;;;;;;;;;;;;;;;;;;5092985;28;19908;-75
2022/02/25 05:32:23;;;;;;;;;;;;;;;;;;5093361;28;20003;-74
2022/02/25 05:34:49;;;;;;;;;;;;;;;;;;5096981;28;20348;-75
2022/02/25 05:37:16;;;;;;;;;;;;;;;;;;5096629;28;19909;-75
2022/02/25 05:39:41;;;;;;;;;;;;;;;;;;5096805;28;19912;-76
2022/02/25 05:42:07;;;;;;;;;;;;;;;;;;5078646;28;19915;-75
2022/02/25 05:44:33;;;;;;;;;;;;;;;;;;5096394;28;19935;-75
2022/02/25 05:47:00;;;;;;;;;;;;;;;;;;5096603;28;19916;-75
2022/02/25 05:49:26;;;;;;;;;;;;;;;;;;5096370;28;19908;-75
2022/02/25 05:51:52;;;;;;;;;;;;;;;;;;5078408;28;19916;-75
2022/02/25 05:54:18;;;;;;;;;;;;;;;;;;5096828;28;20368;-74
2022/02/25 05:56:44;;;;;;;;;;;;;;;;;;5091937;28;19960;-75
2022/02/25 05:59:10;;;;;;;;;;;;;;;;;;5094652;28;19973;-74
2022/02/25 06:01:36;;;;;;;;;;;;;;;;;;5077681;28;20003;-75
2022/02/25 06:04:02;;;;;;;;;;;;;;;;;;5077870;28;19948;-74
2022/02/25 06:06:28;;;;;;;;;;;;;;;;;;5095091;28;19916;-73
2022/02/25 06:08:54;;;;;;;;;;;;;;;;;;5096144;28;20380;-74
2022/02/25 06:11:20;;;;;;;;;;;;;;;;;;5074007;28;19947;-75
2022/02/25 06:13:46;;;;;;;;;;;;;;;;;;5095570;28;19962;-76
2022/02/25 06:16:12;;;;;;;;;;;;;;;;;;5095807;28;19912;-76
2022/02/25 06:18:41;;;;;;;;;;;;;;;;;;5095391;28;20291;-77
2022/02/25 06:21:08;;;;;;;;;;;;;;;;;;5095659;28;19908;-76
2022/02/25 06:23:34;;;;;;;;;;;;;;;;;;5090287;28;20011;-78
2022/02/25 06:26:00;;;;;;;;;;;;;;;;;;5093645;28;20014;-76
2022/02/25 06:28:26;;;;;;;;;;;;;;;;;;5094323;28;20325;-76
2022/02/25 06:30:53;;;;;;;;;;;;;;;;;;5095581;28;19912;-77
2022/02/25 06:33:19;;;;;;;;;;;;;;;;;;5095176;28;19949;-80
2022/02/25 06:35:45;;;;;;;;;;;;;;;;;;5076186;28;19951;-79
2022/02/25 06:38:11;;;;;;;;;;;;;;;;;;5095094;28;19909;-77
2022/02/25 06:40:37;;;;;;;;;;;;;;;;;;5095331;28;20387;-81
2022/02/25 06:43:03;;;;;;;;;;;;;;;;;;5077600;28;19908;-80
2022/02/25 06:45:29;;;;;;;;;;;;;;;;;;5094810;28;19916;-79
2022/02/25 06:47:55;;;;;;;;;;;;;;;;;;5075611;28;20257;-78
2022/02/25 06:50:21;;;;;;;;;;;;;;;;;;5092814;28;19920;-79
2022/02/25 06:52:47;;;;;;;;;;;;;;;;;;5093276;28;19908;-78
2022/02/25 06:55:13;;;;;;;;;;;;;;;;;;5091959;28;19982;-78
2022/02/25 06:57:39;;;;;;;;;;;;;;;;;;5093572;28;19908;-75
2022/02/25 07:00:05;;;;;;;;;;;;;;;;;;5092577;28;19909;-79
2022/02/25 07:02:31;;;;;;;;;;;;;;;;;;5092609;28;19947;-76
2022/02/25 07:04:57;;;;;;;;;;;;;;;;;;5094823;28;19991;-75
2022/02/25 07:07:23;;;;;;;;;;;;;;;;;;5093009;28;20352;-74
2022/02/25 07:09:49;;;;;;;;;;;;;;;;;;5094358;28;19908;-78
2022/02/25 07:12:15;;;;;;;;;;;;;;;;;;5091712;28;19913;-77
2022/02/25 07:14:41;;;;;;;;;;;;;;;;;;5092383;28;20302;-78
2022/02/25 07:17:07;;;;;;;;;;;;;;;;;;5092619;28;19915;-77
2022/02/25 07:19:33;;;;;;;;;;;;;;;;;;5092384;28;20272;-77
2022/02/25 07:21:59;;;;;;;;;;;;;;;;;;5090496;28;19909;-74
2022/02/25 07:24:25;;;;;;;;;;;;;;;;;;5092896;28;19969;-76
2022/02/25 07:26:51;;;;;;;;;;;;;;;;;;5093983;28;20007;-75
2022/02/25 07:29:17;;;;;;;;;;;;;;;;;;5092968;28;20287;-77
2022/02/25 07:31:44;;;;;;;;;;;;;;;;;;5088243;28;19962;-79
2022/02/25 07:34:09;;;;;;;;;;;;;;;;;;5088826;28;19912;-77
2022/02/25 07:36:36;;;;;;;;;;;;;;;;;;5091990;28;19908;-76
2022/02/25 07:39:02;;;;;;;;;;;;;;;;;;5088075;28;19923;-75
2022/02/25 07:41:28;;;;;;;;;;;;;;;;;;5091641;28;19909;-75
2022/02/25 07:43:54;;;;;;;;;;;;;;;;;;5090150;28;19908;-75
2022/02/25 07:46:20;;;;;;;;;;;;;;;;;;5090802;28;20288;-75
2022/02/25 07:48:46;;;;;;;;;;;;;;;;;;5091910;28;20007;-78
2022/02/25 07:51:12;;;;;;;;;;;;;;;;;;5093604;28;19912;-76
2022/02/25 07:53:38;;;;;;;;;;;;;;;;;;5093544;28;19908;-79
2022/02/25 07:56:04;;;;;;;;;;;;;;;;;;5093259;28;19920;-74
2022/02/25 07:58:32;;;;;;;;;;;;;;;;;;5092655;28;19909;-75
2022/02/25 08:00:58;;;;;;;;;;;;;;;;;;5075490;28;19916;-74
2022/02/25 08:03:24;;;;;;;;;;;;;;;;;;5091897;28;20001;-82
2022/02/25 08:05:51;;;;;;;;;;;;;;;;;;5092472;28;19916;-75
2022/02/25 08:08:18;;;;;;;;;;;;;;;;;;5093401;28;19998;-78
2022/02/25 08:10:44;;;;;;;;;;;;;;;;;;5080302;28;19956;-76
2022/02/25 08:13:10;;;;;;;;;;;;;;;;;;5070051;28;19908;-72
2022/02/25 08:15:36;;;;;;;;;;;;;;;;;;5052550;28;19908;-75
2022/02/25 08:18:02;;;;;;;;;;;;;;;;;;5053755;28;20321;-75
2022/02/25 08:20:28;;;;;;;;;;;;;;;;;;5091911;28;19916;-75
2022/02/25 08:22:57;;;;;;;;;;;;;;;;;;5090787;28;19914;-75
2022/02/25 08:25:23;;;;;;;;;;;;;;;;;;5090911;28;19926;-73
2022/02/25 08:27:49;;;;;;;;;;;;;;;;;;5092935;28;20003;-73
2022/02/25 08:30:15;;;;;;;;;;;;;;;;;;5091897;28;19965;-73
2022/02/25 08:32:41;;;;;;;;;;;;;;;;;;5090998;28;20292;-73
2022/02/25 08:35:08;;;;;;;;;;;;;;;;;;5090993;28;20363;-71
2022/02/25 08:37:34;;;;;;;;;;;;;;;;;;5091189;28;19908;-75
2022/02/25 08:40:01;;;;;;;;;;;;;;;;;;5090942;28;19909;-73
2022/02/25 08:42:27;;;;;;;;;;;;;;;;;;5091332;28;19916;-76
2022/02/25 08:44:53;;;;;;;;;;;;;;;;;;5091972;28;19994;-71
2022/02/25 08:47:19;;;;;;;;;;;;;;;;;;5092363;28;19923;-73
2022/02/25 08:49:46;;;;;;;;;;;;;;;;;;5092447;28;19930;-74
2022/02/25 08:52:12;;;;;;;;;;;;;;;;;;5087957;28;19962;-72
2022/02/25 08:54:38;;;;;;;;;;;;;;;;;;5087806;28;19961;-72
2022/02/25 08:57:04;;;;;;;;;;;;;;;;;;5084957;28;19962;-75
2022/02/25 08:59:30;;;;;;;;;;;;;;;;;;5088016;28;20420;-73
2022/02/25 09:01:56;;;;;;;;;;;;;;;;;;5092133;28;19990;-72
2022/02/25 09:04:23;;;;;;;;;;;;;;;;;;5092399;28;19984;-70
2022/02/25 09:06:48;;;;;;;;;;;;;;;;;;5092418;28;19946;-71
2022/02/25 09:09:14;;;;;;;;;;;;;;;;;;5095797;28;19912;-75
2022/02/25 09:11:40;;;;;;;;;;;;;;;;;;5096885;28;20376;-74
2022/02/25 09:14:07;;;;;;;;;;;;;;;;;;5096137;28;19995;-71
2022/02/25 09:16:33;;;;;;;;;;;;;;;;;;5096937;28;20368;-73
2022/02/25 09:18:59;;;;;;;;;;;;;;;;;;5096812;28;19915;-71
2022/02/25 09:21:26;;;;;;;;;;;;;;;;;;5096392;28;19961;-72
2022/02/25 09:23:52;;;;;;;;;;;;;;;;;;5095302;28;19919;-73
2022/02/25 09:26:18;;;;;;;;;;;;;;;;;;5076766;28;19977;-71
2022/02/25 09:28:44;;;;;;;;;;;;;;;;;;5090868;28;19916;-72
2022/02/25 09:31:10;;;;;;;;;;;;;;;;;;5095821;28;19959;-70
2022/02/25 09:33:37;;;;;;;;;;;;;;;;;;5078069;28;19965;-74
2022/02/25 09:36:02;;;;;;;;;;;;;;;;;;5094510;28;19909;-72
2022/02/25 09:38:28;;;;;;;;;;;;;;;;;;5095648;28;19916;-72
2022/02/25 09:40:55;;;;;;;;;;;;;;;;;;5095947;28;19909;-72
2022/02/25 09:43:22;;;;;;;;;;;;;;;;;;5095267;28;19908;-71
2022/02/25 09:45:48;;;;;;;;;;;;;;;;;;5095139;28;20018;-70
2022/02/25 09:48:14;;;;;;;;;;;;;;;;;;5075535;28;19908;-71
2022/02/25 09:50:42;;;;;;;;;;;;;;;;;;5093646;28;20376;-70
2022/02/25 09:54:36;;;;;;;;;;;;;;;;;;5067262;27;19965;-71
2022/02/25 09:57:02;;;;;;;;;;;;;;;;;;5066052;28;20198;-71
2022/02/25 09:59:28;;;;;;;;;;;;;;;;;;5100969;28;19999;-71
2022/02/25 10:01:58;;;;;;;;;;;;;;;;;;5069776;28;19908;-71
2022/02/25 10:04:24;;;;;;;;;;;;;;;;;;5068495;28;20338;-71
2022/02/25 10:10:55;;;;;;;;;;;;;;;;;;5088256;27;19913;-73
2022/02/25 10:13:21;;;;;;;;;;;;;;;;;;5090133;28;19912;-73
2022/02/25 10:15:47;;;;;;;;;;;;;;;;;;5090186;28;19955;-73
2022/02/25 10:18:13;;;;;;;;;;;;;;;;;;5089756;28;19943;-71
2022/02/25 10:20:39;;;;;;;;;;;;;;;;;;5087875;28;19952;-71
2022/02/25 10:25:24;;;;;;;;;;;;;;;;;;5087950;27;19935;-71
2022/02/25 10:27:51;;;;;;;;;;;;;;;;;;5088832;28;19919;-73
2022/02/25 10:31:23;;;;;;;;;;;;;;;;;;5109184;27;19919;-73
2022/02/25 10:35:45;;;;;;;;;;;;;;;;;;5151311;27;19922;-74
2022/02/25 10:38:11;;;;;;;;;;;;;;;;;;5151992;27;19911;-73
2022/02/25 10:40:37;;;;;;;;;;;;;;;;;;5152264;27;19907;-73
2022/02/25 10:43:03;;;;;;;;;;;;;;;;;;5152384;27;20000;-73
2022/02/25 10:47:07;;;;;;;;;;;;;;;;;;5090315;27;19916;-72
2022/02/25 10:49:33;;;;;;;;;;;;;;;;;;5090675;28;19913;-76
2022/02/25 10:51:59;;;;;;;;;;;;;;;;;;5090281;28;20007;-74
2022/02/25 10:54:25;;;;;;;;;;;;;;;;;;5091047;28;19908;-73
2022/02/25 10:56:51;;;;;;;;;;;;;;;;;;5090295;28;20296;-74
2022/02/25 10:59:17;;;;;;;;;;;;;;;;;;5080079;28;19928;-73
2022/02/25 11:01:43;;;;;;;;;;;;;;;;;;5077076;28;20369;-73
2022/02/25 11:04:42;;;;;;;;;;;;;;;;;;5089347;27;19913;-71
2022/02/25 11:10:06;;;;;;;;;;;;;;;;;;5090570;28;19923;-71
2022/02/25 11:12:32;;;;;;;;;;;;;;;;;;5090927;28;19912;-72
2022/02/25 11:16:35;;;;;;;;;;;;;;;;;;5111321;27;19934;-71
2022/02/25 11:19:02;;;;;;;;;;;;;;;;;;5111166;28;19915;-73
2022/02/25 11:23:02;;;;;;;;;;;;;;;;;;5091036;27;20284;-71
2022/02/25 11:25:28;;;;;;;;;;;;;;;;;;5090948;28;19919;-71
2022/02/25 11:27:54;;;;;;;;;;;;;;;;;;5088206;28;19918;-70
2022/02/25 11:30:20;;;;;;;;;;;;;;;;;;5088162;28;19908;-72
2022/02/25 11:32:46;;;;;;;;;;;;;;;;;;5086576;28;19909;-71
2022/02/25 11:35:12;;;;;;;;;;;;;;;;;;5090322;28;20376;-72
2022/02/25 11:41:09;;;;;;;;;;;;;;;;;;5090699;27;19917;-71
2022/02/25 11:43:35;;;;;;;;;;;;;;;;;;5090115;28;19995;-70
2022/02/25 11:46:01;;;;;;;;;;;;;;;;;;5089853;28;19912;-72
2022/02/25 11:48:27;;;;;;;;;;;;;;;;;;5089216;28;19915;-72
2022/02/25 11:50:53;;;;;;;;;;;;;;;;;;5090578;28;19908;-72
2022/02/25 11:55:29;;;;;;;;;;;;;;;;;;5089263;27;19939;-73
2022/02/25 11:57:55;;;;;;;;;;;;;;;;;;5089314;28;20439;-72
2022/02/25 12:00:21;;;;;;;;;;;;;;;;;;5089288;28;19999;-73
2022/02/25 12:02:47;;;;;;;;;;;;;;;;;;5090310;28;19908;-73
2022/02/25 12:05:13;;;;;;;;;;;;;;;;;;5090321;28;19921;-70
2022/02/25 12:09:18;;;;;;;;;;;;;;;;;;5110757;27;19912;-70
2022/02/25 12:12:27;;;;;;;;;;;;;;;;;;5090879;27;19912;-69
2022/02/25 12:14:53;;;;;;;;;;;;;;;;;;5089519;28;20350;-69
2022/02/25 12:17:19;;;;;;;;;;;;;;;;;;5089221;28;19950;-73
2022/02/25 12:19:45;;;;;;;;;;;;;;;;;;5090799;28;19908;-71
2022/02/25 12:22:10;;;;;;;;;;;;;;;;;;5089401;28;19908;-71
2022/02/25 12:24:36;;;;;;;;;;;;;;;;;;5088766;28;19986;-71
2022/02/25 12:27:02;;;;;;;;;;;;;;;;;;5092719;28;19952;-88
2022/02/25 12:29:28;;;;;;;;;;;;;;;;;;5093215;28;19909;-86
2022/02/25 12:31:55;;;;;;;;;;;;;;;;;;5091680;28;19917;-88
2022/02/25 12:34:21;;;;;;;;;;;;;;;;;;5092835;28;19908;-85
2022/02/25 12:36:47;;;;;;;;;;;;;;;;;;5092537;28;19908;-85
2022/02/25 12:41:51;;;;;;;;;;;;;;;;;;5133651;27;20019;-81
2022/02/25 12:44:17;;;;;;;;;;;;;;;;;;5132271;28;19961;-84
2022/02/25 12:46:43;;;;;;;;;;;;;;;;;;5133191;27;19907;-86
2022/02/25 12:51:25;;;;;;;;;;;;;;;;;;5112885;27;20388;-82
2022/02/25 12:53:51;;;;;;;;;;;;;;;;;;5112645;28;20006;-85
2022/02/25 12:56:17;;;;;;;;;;;;;;;;;;5116279;28;19914;-87
2022/02/25 12:58:43;;;;;;;;;;;;;;;;;;5132418;28;19908;-89
2022/02/25 13:01:09;;;;;;;;;;;;;;;;;;5118048;27;19995;-87
2022/02/25 13:03:35;;;;;;;;;;;;;;;;;;5119895;28;19912;-85
2022/02/25 13:06:01;;;;;;;;;;;;;;;;;;5112667;28;19908;-81
2022/02/25 13:08:27;;;;;;;;;;;;;;;;;;5104612;28;19908;-86
2022/02/25 13:10:53;;;;;;;;;;;;;;;;;;5110785;28;20364;-81
2022/02/25 13:13:19;;;;;;;;;;;;;;;;;;5110598;28;20008;-82
2022/02/25 13:15:45;;;;;;;;;;;;;;;;;;5111166;28;19912;-83
2022/02/25 13:18:11;;;;;;;;;;;;;;;;;;5110789;28;20329;-82
2022/02/25 13:20:37;;;;;;;;;;;;;;;;;;5110564;28;20344;-83
2022/02/25 13:23:03;;;;;;;;;;;;;;;;;;5110709;28;19908;-71
2022/02/25 13:25:29;;;;;;;;;;;;;;;;;;5110452;28;19908;-73
2022/02/25 13:27:55;;;;;;;;;;;;;;;;;;5110153;28;20380;-73
2022/02/25 13:30:21;;;;;;;;;;;;;;;;;;5110391;28;20322;-71
2022/02/25 13:32:47;;;;;;;;;;;;;;;;;;5110509;28;19961;-72
2022/02/25 13:35:14;;;;;;;;;;;;;;;;;;5110015;28;19916;-71
2022/02/25 13:39:40;;;;;;;;;;;;;;;;;;5111217;27;19920;-70
2022/02/25 13:42:06;;;;;;;;;;;;;;;;;;5110777;28;20261;-70
2022/02/25 13:45:59;;;;;;;;;;;;;;;;;;5070421;28;19913;-70
2022/02/25 13:53:56;;;;;;;;;;;;;;;;;;5070594;28;19923;-72
2022/02/25 13:56:22;;;;;;;;;;;;;;;;;;5070005;28;20315;-72
2022/02/25 13:58:48;;;;;;;;;;;;;;;;;;5070788;28;19916;-72
2022/02/25 14:01:14;;;;;;;;;;;;;;;;;;5070430;28;19909;-69
2022/02/25 14:03:41;;;;;;;;;;;;;;;;;;5069773;28;19942;-69
2022/02/25 14:06:07;;;;;;;;;;;;;;;;;;5070250;28;19963;-69
2022/02/25 14:08:33;;;;;;;;;;;;;;;;;;5069528;28;19909;-68
2022/02/25 14:11:00;;;;;;;;;;;;;;;;;;5069858;28;19982;-68
2022/02/25 14:13:26;;;;;;;;;;;;;;;;;;5070786;28;20003;-68
2022/02/25 14:15:54;;;;;;;;;;;;;;;;;;5069034;28;20336;-68
2022/02/25 14:18:20;;;;;;;;;;;;;;;;;;5068247;28;19955;-69
2022/02/25 14:20:49;;;;;;;;;;;;;;;;;;5068242;28;19913;-69
2022/02/25 14:23:15;;;;;;;;;;;;;;;;;;5067821;28;19909;-69
2022/02/25 14:25:41;;;;;;;;;;;;;;;;;;5067106;28;19925;-69
2022/02/25 14:28:07;;;;;;;;;;;;;;;;;;5068381;28;20008;-70
2022/02/25 14:30:33;;;;;;;;;;;;;;;;;;5067977;28;19962;-69
2022/02/25 14:32:59;;;;;;;;;;;;;;;;;;5070079;28;19912;-70
2022/02/25 14:35:25;;;;;;;;;;;;;;;;;;5070014;28;19999;-69
2022/02/25 14:37:51;;;;;;;;;;;;;;;;;;5069700;28;19912;-69
2022/02/25 14:40:17;;;;;;;;;;;;;;;;;;5070477;28;20015;-70
2022/02/25 14:42:43;;;;;;;;;;;;;;;;;;5070012;28;20285;-70
2022/02/25 14:45:09;;;;;;;;;;;;;;;;;;5067986;28;19999;-70
2022/02/25 14:47:35;;;;;;;;;;;;;;;;;;5070049;28;20276;-70
2022/02/25 14:50:01;;;;;;;;;;;;;;;;;;5068970;28;19915;-69
2022/02/25 14:52:30;;;;;;;;;;;;;;;;;;5069358;28;19913;-70
2022/02/25 14:54:56;;;;;;;;;;;;;;;;;;5069660;28;19932;-70
2022/02/25 14:57:22;;;;;;;;;;;;;;;;;;5056151;28;20361;-70
2022/02/25 14:59:48;;;;;;;;;;;;;;;;;;5056152;28;19908;-70
2022/02/25 15:02:14;;;;;;;;;;;;;;;;;;5056464;28;20000;-69
2022/02/25 15:04:40;;;;;;;;;;;;;;;;;;5055995;28;19917;-69
2022/02/25 15:07:06;;;;;;;;;;;;;;;;;;5056112;28;19915;-68
2022/02/25 15:09:32;;;;;;;;;;;;;;;;;;5056275;28;19955;-69
2022/02/25 15:11:58;;;;;;;;;;;;;;;;;;5056361;28;19940;-70
2022/02/25 15:14:24;;;;;;;;;;;;;;;;;;5055951;28;20024;-69
2022/02/25 15:16:50;;;;;;;;;;;;;;;;;;5056158;28;20365;-70
2022/02/25 15:19:16;;;;;;;;;;;;;;;;;;5055687;28;19955;-70
2022/02/25 15:21:42;;;;;;;;;;;;;;;;;;5054727;28;20019;-69
2022/02/25 15:24:08;;;;;;;;;;;;;;;;;;5055926;28;19924;-69
2022/02/25 15:26:34;;;;;;;;;;;;;;;;;;5055586;28;19913;-69
2022/02/25 15:29:01;;;;;;;;;;;;;;;;;;5056171;28;19913;-71
2022/02/25 15:31:27;;;;;;;;;;;;;;;;;;5055809;28;19909;-70
2022/02/25 15:33:53;;;;;;;19.70;11.60;;;;;;;;;;5055452;28;19915;-70
2022/02/25 15:36:19;;;;;;;34.17;23.20;;;;;;;;;;5055341;28;20040;-71
2022/02/25 15:38:45;;;;;;;30.25;18.33;;;;;;;;;;5055244;28;20067;-71
2022/02/25 15:41:12;;;;;;;28.80;17.02;;;;;;;;;;5054928;28;20032;-70
2022/02/25 15:45:40;;;;;;;37.75;23.17;;;;;;;;;;5111928;27;20420;-71
2022/02/25 15:48:06;;;;;;;38.92;24.77;;;;;;;;;;5110888;28;20099;-70
2022/02/25 15:50:33;;;;;;;34.88;22.88;;;;;;;;;;5111241;28;20024;-69
2022/02/25 15:52:59;;;;;;;34.90;22.45;;;;;;;;;;5111222;28;20095;-69
2022/02/25 15:55:25;;;;;;;35.20;22.00;;;;;;;;;;5110985;28;20028;-70
2022/02/25 15:57:51;;;;;;;38.80;23.27;;;;;;;;;;5111003;28;20055;-70
2022/02/25 16:00:17;;;;;;;38.47;24.88;;;;;;;;;;5111057;28;20529;-70
2022/02/25 16:02:43;;;;;;;47.65;29.05;;;;;;;;;;5109207;28;20057;-71
2022/02/25 16:07:17;;;;;;;57.35;34.08;;;;;;;;;;5111368;27;20416;-72
2022/02/25 16:09:44;;;;;;;48.17;26.60;;;;;;;;;;5110956;28;20020;-68
2022/02/25 16:13:57;;;;;;;96.75;56.97;;;;;;;;;;5111820;27;20834;-69
2022/02/25 16:16:23;;;;;;;72.40;42.15;;;;;;;;;;5109525;28;20039;-70
2022/02/25 16:18:49;;;;;;;77.88;43.55;;;;;;;;;;5111250;28;20020;-69
2022/02/25 16:21:17;;;;;;;109.93;61.03;;;;;;;;;;5111171;28;20024;-70
2022/02/25 16:29:49;;;;;;;;;;;;;;;;;;5070923;28;19913;-71
2022/02/25 16:34:08;;;;;;;;;;;;;;;;;;5112269;27;19930;-70
2022/02/25 16:36:34;;;;;;;;;;;;;;;;;;5111385;28;19912;-70
2022/02/25 16:42:11;;;;;;;;;;;;;;;;;;5071867;27;19935;-70
2022/02/25 16:46:22;;;;;;;;;;;;;;;;;;5092054;27;20291;-71
2022/02/25 16:48:48;;;;;;;;;;;;;;;;;;5091316;28;20277;-70
2022/02/25 16:53:40;;;;;;;;;;;;;;;;;;5091730;27;19913;-69
2022/02/25 16:56:06;;;;;;;;;;;;;;;;;;5091333;28;20311;-70
2022/02/25 16:59:31;;;;;;;;;;;;;;;;;;5070765;28;19913;-69
2022/02/25 17:01:57;;;;;;;;;;;;;;;;;;5069832;28;19912;-70
2022/02/25 17:04:23;;;;;;;;;;;;;;;;;;5071344;28;19909;-69
2022/02/25 17:06:49;;;;;;;;;;;;;;;;;;5070560;28;20442;-69
2022/02/25 17:09:15;;;;;;;;;;;;;;;;;;5070973;28;19917;-69
2022/02/25 17:11:43;;;;;;;;;;;;;;;;;;5070759;28;20372;-70
2022/02/25 17:14:09;;;;;;;;;;;;;;;;;;5071047;28;19953;-70
2022/02/25 17:16:35;;;;;;;;;;;;;;;;;;5070788;28;19909;-70
2022/02/25 17:19:01;;;;;;;;;;;;;;;;;;5070449;28;20021;-70
2022/02/25 17:21:27;;;;;;;;;;;;;;;;;;5070737;28;19909;-69
2022/02/25 17:23:53;;;;;;;;;;;;;;;;;;5070894;28;19908;-70
2022/02/25 17:26:19;;;;;;;;;;;;;;;;;;5070427;28;19908;-69
2022/02/25 17:28:45;;;;;;;;;;;;;;;;;;5070709;28;19940;-70
2022/02/25 17:31:11;;;;;;;;;;;;;;;;;;5070679;28;20372;-70
2022/02/25 17:33:37;;;;;;;;;;;;;;;;;;5070166;28;19908;-70
2022/02/25 17:36:03;;;;;;;;;;;;;;;;;;5070517;28;19962;-70
2022/02/25 17:38:29;;;;;;;;;;;;;;;;;;5070327;28;19917;-70
2022/02/25 17:40:55;;;;;;;;;;;;;;;;;;5070110;28;20071;-70